首页
METAR-TAF:

METAR-TAF

机场 :

Salina Municipal Airport

盐沼, 堪薩斯州, 美国

纬度: 38-46-48N, 经度: 097-38-39W, 海拔: 387米

当前天气观测

该预报发布于1小时和0分钟前的03:53 UTC
风速6节,风向北转西北
温度 8°C
湿度 53%
气压 1012 hPa
能見度: 16.1公里
天空无云

METAR: KSLN 190353Z 33006KT 10SM CLR 08/M01 A2988 RMK AO2 SLP116 T00831011

时间: 22:53 (04:53 UTC)

预报

该预报发布于5小时和33分钟前的23:20 UTC
预报有效从19日的 00点(UTC)到 19日的 24点(UTC)
风速10节,风向北转西北
能見度: 10公里
天空无云
从 19日的 0200点(UTC)
风速9节,风向西北
能見度: 10公里
天空无云
从 19日的 0700点(UTC)
风速3节,风向多变
能見度: 10公里
天空无云
从 19日的 1900点(UTC)
风速7节,风向南转南东
能見度: 10公里
天空无云

TAF: KSLN 182320Z 1900/1924 33010KT P6SM SKC FM190200 32009KT P6SM SKC FM190700 VRB03KT P6SM SKC FM191900 16007KT P6SM SKC

超过4000个机场的气象观测和天气预报(METAR&TAF报告)。

可查询的气象台以黄色和红色小点在地图上表示。

将鼠标移到小点上方,可查看气象台名称。

然后点击查看天气观测和预报。

如需切换地图:点击带黑十字的绿色按钮放大地图;点击带横线的绿色按钮缩小地图;或者点击绿色箭头查看邻近地区的地图。


METAR-TAF: